createdAt,value
2022-08-30T00:01:33.944Z,97962.47
2022-08-30T00:04:01.992Z,97966.81
2022-08-30T00:06:30.445Z,97960.16
2022-08-30T00:08:57.282Z,97960.25
2022-08-30T00:11:26.856Z,97958.25
2022-08-30T00:13:55.207Z,97952.03
2022-08-30T00:16:23.650Z,97958.25
2022-08-30T00:18:50.992Z,97946.56
2022-08-30T00:21:21.341Z,97950.81
2022-08-30T00:23:48.229Z,97951.22
2022-08-30T00:26:14.890Z,97950.47
2022-08-30T00:28:41.589Z,97944.28
2022-08-30T00:31:08.723Z,97938.81
2022-08-30T00:33:38.997Z,97937.69
2022-08-30T00:36:07.770Z,97933.41
2022-08-30T00:38:34.344Z,97939.72
2022-08-30T00:41:01.550Z,97935.09
2022-08-30T00:43:32.597Z,97933.13
2022-08-30T00:45:59.246Z,97930.09
2022-08-30T00:48:26.149Z,97928.19
2022-08-30T00:51:00.926Z,97931.34
2022-08-30T00:53:34.655Z,97930.22
2022-08-30T00:56:02.372Z,97931.06
2022-08-30T00:58:33.840Z,97933.03
2022-08-30T01:01:01.806Z,97932.69
2022-08-30T01:03:36.295Z,97928.03
2022-08-30T01:06:04.543Z,97921.44
2022-08-30T01:08:31.565Z,97927.75
2022-08-30T01:11:07.962Z,97930.06
2022-08-30T01:13:39.034Z,97933.56
2022-08-30T01:16:06.160Z,97933.47
2022-08-30T01:18:34.584Z,97929.22
2022-08-30T01:21:15.230Z,97934.69
2022-08-30T01:23:47.776Z,97940.59
2022-08-30T01:26:17.509Z,97939.53
2022-08-30T01:28:54.341Z,97940.38
2022-08-30T01:31:24.151Z,97947.16
2022-08-30T01:33:51.409Z,97939.84
2022-08-30T01:36:19.729Z,97941.81
2022-08-30T01:38:49.922Z,97948.59
2022-08-30T01:41:26.448Z,97958.44
2022-08-30T01:43:56.682Z,97946.28
2022-08-30T01:46:26.907Z,97955.69
2022-08-30T01:48:58.449Z,97947.19
2022-08-30T01:51:27.658Z,97947.22
2022-08-30T01:53:55.045Z,97956.59
2022-08-30T01:56:22.361Z,97947.69
2022-08-30T01:58:49.986Z,97950.41
2022-08-30T02:01:20.018Z,97951.25
2022-08-30T02:03:49.410Z,97952.03
2022-08-30T02:06:19.926Z,97952.91
2022-08-30T02:08:47.255Z,97954.09
2022-08-30T02:11:14.574Z,97950.59
2022-08-30T02:13:43.145Z,97951.03
2022-08-30T02:16:12.950Z,97949.41
2022-08-30T02:18:52.127Z,97944.72
2022-08-30T02:21:20.583Z,97948.28
2022-08-30T02:23:47.187Z,97949.88
2022-08-30T02:26:20.853Z,97951.06
2022-08-30T02:28:49.701Z,97950.75
2022-08-30T02:31:20.842Z,97947.66
2022-08-30T02:33:50.337Z,97943.41
2022-08-30T02:36:18.105Z,97952.88
2022-08-30T02:38:45.161Z,97951.72
2022-08-30T02:41:11.957Z,97945.84
2022-08-30T02:43:38.521Z,97948.13
2022-08-30T02:46:05.454Z,97938.75
2022-08-30T02:48:37.551Z,97944.16
2022-08-30T02:51:07.125Z,97940.25
2022-08-30T02:53:37.185Z,97934.41
2022-08-30T02:56:04.768Z,97933.63
2022-08-30T02:58:31.779Z,97940.25
2022-08-30T03:00:58.451Z,97948.44
2022-08-30T03:03:25.684Z,97937.13
2022-08-30T03:05:52.280Z,97935.19
2022-08-30T03:08:18.886Z,97933.63
2022-08-30T03:10:47.828Z,97932.16
2022-08-30T03:13:14.654Z,97934.91
2022-08-30T03:15:41.325Z,97927.94
2022-08-30T03:18:08.389Z,97929.22
2022-08-30T03:20:39.453Z,97927.03
2022-08-30T03:23:06.968Z,97912.72
2022-08-30T03:25:34.134Z,97912.44
2022-08-30T03:28:01.672Z,97906.66
2022-08-30T03:30:28.632Z,97897.75
2022-08-30T03:32:55.437Z,97908.22
2022-08-30T03:35:22.193Z,97898.81
2022-08-30T03:37:49.348Z,97902.66
2022-08-30T03:40:23.281Z,97892.50
2022-08-30T03:42:53.913Z,97899.91
2022-08-30T03:45:21.124Z,97899.09
2022-08-30T03:47:55.356Z,97902.19
2022-08-30T03:50:23.347Z,97906.31
2022-08-30T03:52:51.032Z,97910.28
2022-08-30T03:55:17.634Z,97904.84
2022-08-30T03:57:44.199Z,97900.56
2022-08-30T04:00:14.004Z,97908.75
2022-08-30T04:02:43.662Z,97922.81
2022-08-30T04:05:11.072Z,97916.97
2022-08-30T04:07:38.235Z,97927.22
2022-08-30T04:10:07.389Z,97924.28
2022-08-30T04:12:34.252Z,97934.59
2022-08-30T04:15:00.829Z,97940.59
2022-08-30T04:17:27.814Z,97939.88
2022-08-30T04:19:54.457Z,97939.94
2022-08-30T04:22:22.046Z,97945.81
2022-08-30T04:24:50.489Z,97950.53
2022-08-30T04:27:20.290Z,97953.72
2022-08-30T04:29:49.116Z,97945.16
2022-08-30T04:32:18.513Z,97954.53
2022-08-30T04:34:45.373Z,97959.66
2022-08-30T04:37:11.917Z,97957.75
2022-08-30T04:39:43.401Z,97946.88
2022-08-30T04:42:10.825Z,97938.28
2022-08-30T04:44:37.540Z,97949.19
2022-08-30T04:47:04.311Z,97951.88
2022-08-30T04:49:31.469Z,97959.25
2022-08-30T04:51:58.455Z,97963.91
2022-08-30T04:54:26.761Z,97961.56
2022-08-30T04:56:53.897Z,97965.03
2022-08-30T04:59:24.307Z,97965.38
2022-08-30T05:01:52.629Z,97967.28
2022-08-30T05:04:19.232Z,97955.50
2022-08-30T05:06:45.840Z,97965.53
2022-08-30T05:09:15.398Z,97967.78
2022-08-30T05:11:43.409Z,97967.28
2022-08-30T05:14:10.810Z,97975.63
2022-08-30T05:16:37.560Z,97972.19
2022-08-30T05:19:04.350Z,97971.16
2022-08-30T05:21:30.948Z,97975.41
2022-08-30T05:24:00.516Z,97965.72
2022-08-30T05:26:32.416Z,97974.97
2022-08-30T05:28:59.724Z,97972.13
2022-08-30T05:31:34.689Z,97962.91
2022-08-30T05:36:57.596Z,97960.63
2022-08-30T05:39:26.885Z,97969.63
2022-08-30T05:41:57.525Z,97961.84
2022-08-30T05:44:25.886Z,97965.53
2022-08-30T05:46:52.631Z,97959.75
2022-08-30T05:49:30.804Z,97961.75
2022-08-30T05:51:57.353Z,97955.59
2022-08-30T05:54:23.954Z,97954.50
2022-08-30T05:56:54.938Z,97955.31
2022-08-30T05:59:21.718Z,97952.22
2022-08-30T06:01:48.651Z,97961.66
2022-08-30T06:04:15.719Z,97946.69
2022-08-30T06:06:44.217Z,97949.34
2022-08-30T06:09:13.368Z,97948.69
2022-08-30T06:11:42.451Z,97947.59
2022-08-30T06:14:09.258Z,97941.59
2022-08-30T06:16:39.006Z,97939.88
2022-08-30T06:19:08.742Z,97937.78
2022-08-30T06:21:50.685Z,97939.53
2022-08-30T06:24:17.757Z,97936.00
2022-08-30T06:26:47.269Z,97935.19
2022-08-30T06:29:18.180Z,97937.66
2022-08-30T06:31:45.571Z,97945.47
2022-08-30T06:34:16.321Z,97945.34
2022-08-30T06:36:42.899Z,97948.41
2022-08-30T06:39:10.080Z,97940.16
2022-08-30T06:41:39.152Z,97944.91
2022-08-30T06:44:06.838Z,97944.31
2022-08-30T06:46:38.652Z,97933.69
2022-08-30T06:49:06.791Z,97935.03
2022-08-30T06:51:37.067Z,97937.22
2022-08-30T06:54:05.611Z,97937.34
2022-08-30T06:56:57.690Z,97936.63
2022-08-30T06:59:34.103Z,97945.16
2022-08-30T07:02:00.760Z,97946.75
2022-08-30T07:04:27.413Z,97934.56
2022-08-30T07:06:55.773Z,97934.09
2022-08-30T07:09:22.898Z,97935.44
2022-08-30T07:11:52.462Z,97941.22
2022-08-30T07:14:20.633Z,97938.81
2022-08-30T07:16:47.294Z,97940.03
2022-08-30T07:19:21.069Z,97946.75
2022-08-30T07:21:49.402Z,97952.69
2022-08-30T07:24:16.448Z,97947.00
2022-08-30T07:26:48.954Z,97946.66
2022-08-30T07:29:18.614Z,97942.03
2022-08-30T07:31:45.232Z,97944.78
2022-08-30T07:34:11.933Z,97942.94
2022-08-30T07:36:39.146Z,97946.53
2022-08-30T07:39:07.235Z,97948.00
2022-08-30T07:41:38.776Z,97946.09
2022-08-30T07:44:15.397Z,97946.00
2022-08-30T07:46:42.864Z,97947.47
2022-08-30T07:49:11.880Z,97946.41
2022-08-30T07:51:45.165Z,97964.78
2022-08-30T07:54:11.809Z,97959.50
2022-08-30T07:56:38.830Z,97949.34
2022-08-30T07:59:05.676Z,97953.41
2022-08-30T08:01:32.612Z,97955.34
2022-08-30T08:04:02.756Z,97956.19
2022-08-30T08:06:34.675Z,97953.09
2022-08-30T08:09:02.438Z,97953.31
2022-08-30T08:11:33.960Z,97947.47
2022-08-30T08:14:01.807Z,97951.63
2022-08-30T08:16:31.684Z,97950.78
2022-08-30T08:19:00.563Z,97961.44
2022-08-30T08:21:27.753Z,97954.72
2022-08-30T08:23:54.529Z,97949.03
2022-08-30T08:26:23.581Z,97943.38
2022-08-30T08:28:50.469Z,97936.84
2022-08-30T08:31:28.892Z,97951.38
2022-08-30T08:36:38.839Z,97952.56
2022-08-30T08:39:07.721Z,97956.81
2022-08-30T08:41:49.540Z,97952.47
2022-08-30T08:44:23.111Z,97947.25
2022-08-30T08:47:13.799Z,97950.25
2022-08-30T08:49:44.965Z,97943.13
2022-08-30T08:52:42.789Z,97940.38
2022-08-30T08:55:15.886Z,97947.25
2022-08-30T08:57:42.936Z,97957.25
2022-08-30T09:00:14.676Z,97951.00
2022-08-30T09:02:57.616Z,97949.56
2022-08-30T09:05:29.316Z,97952.16
2022-08-30T09:08:17.739Z,97947.09
2022-08-30T09:10:54.391Z,97936.88
2022-08-30T09:13:24.837Z,97936.19
2022-08-30T09:15:55.166Z,97927.84
2022-08-30T09:18:45.676Z,97934.91
2022-08-30T09:21:13.819Z,97936.31
2022-08-30T09:23:51.650Z,97932.91
2022-08-30T09:26:30.224Z,97930.03
2022-08-30T09:28:58.617Z,97925.94
2022-08-30T09:31:28.443Z,97921.59
2022-08-30T09:34:03.711Z,97924.09
2022-08-30T09:36:39.742Z,97928.72
2022-08-30T09:39:15.550Z,97918.81
2022-08-30T09:41:45.878Z,97919.03
2022-08-30T09:44:19.358Z,97913.41
2022-08-30T09:46:50.824Z,97924.09
2022-08-30T09:49:43.717Z,97924.91
2022-08-30T09:52:35.112Z,97915.78
2022-08-30T09:55:53.421Z,97912.72
2022-08-30T09:58:31.834Z,97896.50
2022-08-30T10:01:22.909Z,97896.97
2022-08-30T10:04:30.855Z,97887.53
2022-08-30T10:07:14.202Z,97896.66
2022-08-30T10:09:59.586Z,97886.00
2022-08-30T10:12:46.391Z,97886.41
2022-08-30T10:15:22.160Z,97886.19
2022-08-30T10:18:03.601Z,97881.69
2022-08-30T10:20:32.952Z,97879.19
2022-08-30T10:23:11.703Z,97881.75
2022-08-30T10:25:54.381Z,97888.53
2022-08-30T10:28:39.510Z,97881.75
2022-08-30T10:31:12.941Z,97884.03
2022-08-30T10:33:47.514Z,97881.72
2022-08-30T10:36:16.901Z,97874.31
2022-08-30T10:38:55.285Z,97865.06
2022-08-30T10:41:28.943Z,97870.09
2022-08-30T10:44:08.088Z,97866.81
2022-08-30T10:47:01.567Z,97868.16
2022-08-30T10:49:36.734Z,97864.22
2022-08-30T10:52:31.147Z,97865.88
2022-08-30T10:55:06.426Z,97867.59
2022-08-30T10:57:33.011Z,97861.66
2022-08-30T11:00:05.747Z,97864.09
2022-08-30T11:02:43.186Z,97858.34
2022-08-30T11:05:09.977Z,97864.97
2022-08-30T11:08:00.522Z,97862.28
2022-08-30T11:10:38.231Z,97855.03
2022-08-30T11:13:14.683Z,97859.16
2022-08-30T11:16:04.983Z,97860.66
2022-08-30T11:18:44.403Z,97856.88
2022-08-30T11:21:31.747Z,97866.53
2022-08-30T11:24:12.115Z,97853.81
2022-08-30T11:26:45.565Z,97851.47
2022-08-30T11:29:39.097Z,97853.59
2022-08-30T11:32:21.499Z,97851.66
2022-08-30T11:34:51.219Z,97862.63
2022-08-30T11:37:47.289Z,97846.06
2022-08-30T11:40:26.195Z,97852.16
2022-08-30T11:42:55.588Z,97831.81
2022-08-30T11:45:25.215Z,97848.78
2022-08-30T11:47:54.480Z,97849.47
2022-08-30T11:50:29.199Z,97842.34
2022-08-30T11:53:09.610Z,97835.03
2022-08-30T11:55:46.150Z,97836.16
2022-08-30T11:58:53.353Z,97834.88
2022-08-30T12:01:50.971Z,97823.22
2022-08-30T12:04:17.665Z,97821.84
2022-08-30T12:06:52.404Z,97822.22
2022-08-30T12:09:19.022Z,97816.91
2022-08-30T12:11:57.056Z,97807.47
2022-08-30T12:14:44.762Z,97814.13
2022-08-30T12:17:39.070Z,97816.63
2022-08-30T12:20:16.874Z,97803.97
2022-08-30T12:22:45.810Z,97816.31
2022-08-30T12:25:25.524Z,97803.03
2022-08-30T12:28:07.781Z,97803.41
2022-08-30T12:30:38.872Z,97795.22
2022-08-30T12:33:06.339Z,97787.88
2022-08-30T12:35:34.012Z,97791.88
2022-08-30T12:38:08.791Z,97787.88
2022-08-30T12:40:35.673Z,97790.75
2022-08-30T12:43:06.224Z,97795.44
2022-08-30T12:45:41.960Z,97787.06
2022-08-30T12:48:11.504Z,97799.59
2022-08-30T12:50:55.386Z,97788.47
2022-08-30T12:53:27.893Z,97795.34
2022-08-30T12:56:04.573Z,97795.91
2022-08-30T12:58:40.255Z,97789.47
2022-08-30T13:01:22.592Z,97788.13
2022-08-30T13:04:20.980Z,97789.38
2022-08-30T13:07:01.571Z,97778.28
2022-08-30T13:09:35.103Z,97770.03
2022-08-30T13:12:09.944Z,97769.94
2022-08-30T13:14:43.599Z,97764.72
2022-08-30T13:17:23.837Z,97755.63
2022-08-30T13:20:20.955Z,97752.56
2022-08-30T13:23:07.723Z,97747.34
2022-08-30T13:25:38.310Z,97747.88
2022-08-30T13:28:07.033Z,97737.47
2022-08-30T13:30:36.430Z,97725.75
2022-08-30T13:33:03.300Z,97730.16
2022-08-30T13:35:31.303Z,97719.53
2022-08-30T13:38:00.030Z,97722.94
2022-08-30T13:40:28.958Z,97723.00
2022-08-30T13:42:56.603Z,97714.63
2022-08-30T13:45:43.295Z,97715.41
2022-08-30T13:48:11.372Z,97718.19
2022-08-30T13:50:38.868Z,97717.16
2022-08-30T13:53:05.860Z,97718.94
2022-08-30T13:55:33.671Z,97728.03
2022-08-30T13:58:00.443Z,97725.00
2022-08-30T14:00:27.534Z,97719.16
2022-08-30T14:02:57.569Z,97729.84
2022-08-30T14:08:48.148Z,97736.91
2022-08-30T14:11:19.346Z,97740.72
2022-08-30T14:16:38.062Z,97741.47
2022-08-30T14:19:08.282Z,97743.78
2022-08-30T14:21:36.013Z,97736.38
2022-08-30T14:24:04.860Z,97735.13
2022-08-30T14:26:36.139Z,97729.03
2022-08-30T14:29:08.903Z,97718.13
2022-08-30T14:31:38.668Z,97718.06
2022-08-30T14:34:09.278Z,97725.13
2022-08-30T14:36:42.553Z,97717.75
2022-08-30T14:39:11.526Z,97707.56
2022-08-30T14:41:44.597Z,97712.31
2022-08-30T14:44:13.295Z,97705.94
2022-08-30T14:46:40.369Z,97704.88
2022-08-30T14:49:10.312Z,97701.13
2022-08-30T14:51:38.549Z,97703.59
2022-08-30T14:57:03.543Z,97700.03
2022-08-30T14:59:30.312Z,97690.91
2022-08-30T15:01:56.972Z,97689.66
2022-08-30T15:04:25.589Z,97689.44
2022-08-30T15:06:52.526Z,97690.19
2022-08-30T15:09:23.830Z,97677.81
2022-08-30T15:11:58.633Z,97688.47
2022-08-30T15:14:29.761Z,97682.63
2022-08-30T15:17:00.442Z,97688.72
2022-08-30T15:19:27.367Z,97683.66
2022-08-30T15:22:00.119Z,97682.69
2022-08-30T15:24:29.736Z,97675.41
2022-08-30T15:26:59.861Z,97676.63
2022-08-30T15:29:27.618Z,97679.09
2022-08-30T15:31:59.525Z,97684.66
2022-08-30T15:34:28.155Z,97681.63
2022-08-30T15:36:55.775Z,97688.47
2022-08-30T15:39:22.423Z,97685.97
2022-08-30T15:41:55.697Z,97683.13
2022-08-30T15:44:27.357Z,97677.56
2022-08-30T15:46:53.990Z,97690.00
2022-08-30T15:49:24.773Z,97690.00
2022-08-30T15:51:54.209Z,97685.22
2022-08-30T15:54:23.082Z,97677.56
2022-08-30T15:56:52.657Z,97677.06
2022-08-30T15:59:19.939Z,97672.97
2022-08-30T16:01:48.996Z,97673.97
2022-08-30T16:04:18.471Z,97673.47
2022-08-30T16:06:47.896Z,97677.47
2022-08-30T16:09:14.543Z,97679.72
2022-08-30T16:11:41.807Z,97678.22
2022-08-30T16:14:09.028Z,97684.50
2022-08-30T16:16:37.744Z,97692.06
2022-08-30T16:19:07.139Z,97686.72
2022-08-30T16:21:37.086Z,97699.56
2022-08-30T16:24:10.524Z,97698.56
2022-08-30T16:26:40.881Z,97696.53
2022-08-30T16:29:10.527Z,97698.81
2022-08-30T16:31:37.543Z,97700.56
2022-08-30T16:34:06.296Z,97701.03
2022-08-30T16:36:35.801Z,97692.84
2022-08-30T16:39:04.882Z,97693.53
2022-08-30T16:41:35.554Z,97693.50
2022-08-30T16:44:07.021Z,97698.44
2022-08-30T16:46:35.907Z,97705.75
2022-08-30T16:49:04.741Z,97698.84
2022-08-30T16:51:33.625Z,97701.09
2022-08-30T16:54:03.946Z,97702.81
2022-08-30T16:56:32.608Z,97695.41
2022-08-30T16:59:03.027Z,97703.97
2022-08-30T17:01:41.786Z,97708.13
2022-08-30T17:04:10.344Z,97702.44
2022-08-30T17:06:37.263Z,97702.34
2022-08-30T17:09:07.330Z,97695.66
2022-08-30T17:11:35.854Z,97698.38
2022-08-30T17:14:02.661Z,97699.56
2022-08-30T17:16:31.790Z,97703.78
2022-08-30T17:19:00.849Z,97713.78
2022-08-30T17:21:51.343Z,97711.88
2022-08-30T17:24:17.952Z,97709.03
2022-08-30T17:26:45.166Z,97715.25
2022-08-30T17:29:13.503Z,97717.94
2022-08-30T17:31:43.019Z,97721.34
2022-08-30T17:34:09.680Z,97734.34
2022-08-30T17:36:47.055Z,97728.06
2022-08-30T17:39:14.607Z,97736.19
2022-08-30T17:41:48.205Z,97735.16
2022-08-30T17:44:26.020Z,97742.59
2022-08-30T17:46:53.186Z,97757.25
2022-08-30T17:49:19.803Z,97756.63
2022-08-30T17:51:47.701Z,97764.41
2022-08-30T17:54:17.743Z,97765.78
2022-08-30T17:56:44.570Z,97752.03
2022-08-30T17:59:12.727Z,97751.81
2022-08-30T18:01:41.815Z,97754.75
2022-08-30T18:04:09.678Z,97759.63
2022-08-30T18:06:41.729Z,97771.63
2022-08-30T18:09:09.971Z,97772.28
2022-08-30T18:11:39.747Z,97776.75
2022-08-30T18:14:10.865Z,97779.97
2022-08-30T18:16:53.809Z,97793.31
2022-08-30T18:19:27.360Z,97803.91
2022-08-30T18:21:54.227Z,97823.56
2022-08-30T18:24:21.605Z,97828.59
2022-08-30T18:26:52.980Z,97830.75
2022-08-30T18:29:29.452Z,97841.31
2022-08-30T18:32:09.041Z,97853.56
2022-08-30T18:34:36.021Z,97870.25
2022-08-30T18:37:02.771Z,97887.88
2022-08-30T18:39:34.318Z,97899.03
2022-08-30T18:42:01.749Z,97900.66
2022-08-30T18:44:33.461Z,97906.00
2022-08-30T18:47:01.543Z,97907.84
2022-08-30T18:49:32.169Z,97917.00
2022-08-30T18:51:58.880Z,97917.59
2022-08-30T18:54:27.249Z,97929.34
2022-08-30T18:56:54.522Z,97928.69
2022-08-30T18:59:21.453Z,97929.53
2022-08-30T19:01:49.675Z,97925.19
2022-08-30T19:04:22.355Z,97929.84
2022-08-30T19:06:57.119Z,97930.41
2022-08-30T19:09:24.005Z,97946.84
2022-08-30T19:11:53.863Z,97955.97
2022-08-30T19:14:22.140Z,97955.16
2022-08-30T19:16:48.827Z,97952.19
2022-08-30T19:19:15.616Z,97951.75
2022-08-30T19:21:42.290Z,97958.94
2022-08-30T19:24:09.289Z,97968.25
2022-08-30T19:26:40.639Z,97963.47
2022-08-30T19:29:09.214Z,97978.84
2022-08-30T19:31:37.357Z,97974.16
2022-08-30T19:34:05.836Z,97976.66
2022-08-30T19:36:32.395Z,97982.53
2022-08-30T19:39:02.567Z,97976.75
2022-08-30T19:41:29.662Z,97982.50
2022-08-30T19:44:04.528Z,97975.41
2022-08-30T19:46:32.350Z,97978.94
2022-08-30T19:49:01.132Z,97978.50
2022-08-30T19:51:29.589Z,97983.31
2022-08-30T19:53:59.064Z,97980.63
2022-08-30T19:56:26.262Z,97987.59
2022-08-30T19:58:54.707Z,97993.88
2022-08-30T20:01:33.133Z,98004.06
2022-08-30T20:04:06.342Z,98007.13
2022-08-30T20:06:33.507Z,98015.22
2022-08-30T20:09:04.986Z,98012.28
2022-08-30T20:11:33.635Z,98008.84
2022-08-30T20:14:00.255Z,98009.47
2022-08-30T20:16:33.136Z,98006.44
2022-08-30T20:19:05.612Z,98006.94
2022-08-30T20:21:37.005Z,98001.59
2022-08-30T20:24:04.579Z,97997.34
2022-08-30T20:26:36.547Z,97988.38
2022-08-30T20:29:04.240Z,97987.25
2022-08-30T20:31:31.666Z,97981.84
2022-08-30T20:33:58.446Z,97976.81
2022-08-30T20:36:25.266Z,97974.06
2022-08-30T20:38:51.833Z,97970.19
2022-08-30T20:41:21.656Z,97974.13
2022-08-30T20:43:48.914Z,97962.03
2022-08-30T20:46:18.493Z,97966.75
2022-08-30T20:48:48.554Z,97967.53
2022-08-30T20:51:19.237Z,97955.03
2022-08-30T20:53:46.388Z,97955.09
2022-08-30T20:56:17.377Z,97948.91
2022-08-30T20:58:44.904Z,97951.75
2022-08-30T21:01:13.096Z,97944.78
2022-08-30T21:03:42.808Z,97953.81
2022-08-30T21:06:11.716Z,97959.72
2022-08-30T21:08:39.568Z,97968.28
2022-08-30T21:11:07.025Z,97969.13
2022-08-30T21:13:33.810Z,97960.69
2022-08-30T21:16:03.398Z,97954.84
2022-08-30T21:18:34.716Z,97953.38
2022-08-30T21:21:14.664Z,97952.66
2022-08-30T21:23:42.848Z,97955.53
2022-08-30T21:26:10.583Z,97956.78
2022-08-30T21:28:38.796Z,97957.97
2022-08-30T21:31:13.796Z,97956.13
2022-08-30T21:33:42.709Z,97955.41
2022-08-30T21:36:29.310Z,97953.09
2022-08-30T21:39:00.763Z,97950.03
2022-08-30T21:41:28.751Z,97946.22
2022-08-30T21:44:04.221Z,97950.97
2022-08-30T21:46:32.735Z,97953.31
2022-08-30T21:49:01.662Z,97938.50
2022-08-30T21:51:33.433Z,97950.97
2022-08-30T21:54:02.364Z,97950.22
2022-08-30T21:56:29.247Z,97947.13
2022-08-30T21:58:56.573Z,97950.25
2022-08-30T22:01:26.194Z,97964.28
2022-08-30T22:03:56.452Z,97951.75
2022-08-30T22:06:31.002Z,97967.44
2022-08-30T22:08:58.938Z,97979.50
2022-08-30T22:11:26.733Z,97986.16
2022-08-30T22:13:57.145Z,97991.22
2022-08-30T22:16:25.577Z,97991.63
2022-08-30T22:18:52.809Z,97995.91
2022-08-30T22:21:23.225Z,98001.03
2022-08-30T22:23:50.461Z,98001.75
2022-08-30T22:26:19.128Z,98002.09
2022-08-30T22:28:47.518Z,98005.25
2022-08-30T22:31:15.576Z,98001.69
2022-08-30T22:33:43.021Z,97998.91
2022-08-30T22:36:17.520Z,98001.59
2022-08-30T22:38:44.179Z,98008.63
2022-08-30T22:41:13.043Z,98012.53
2022-08-30T22:43:40.376Z,98016.81
2022-08-30T22:46:07.190Z,98010.19
2022-08-30T22:48:39.382Z,98012.53
2022-08-30T22:51:08.554Z,98015.28
2022-08-30T22:53:35.756Z,98012.91
2022-08-30T22:56:14.800Z,98010.19
2022-08-30T22:58:44.299Z,98010.19
2022-08-30T23:01:26.881Z,98008.19
2022-08-30T23:03:56.046Z,98007.03
2022-08-30T23:06:23.819Z,98003.50
2022-08-30T23:08:54.878Z,98000.75
2022-08-30T23:11:21.826Z,97990.63
2022-08-30T23:13:48.650Z,97998.41
2022-08-30T23:16:22.436Z,97992.16
2022-08-30T23:18:49.209Z,97984.31
2022-08-30T23:21:21.589Z,97992.16
2022-08-30T23:24:10.231Z,97992.94
2022-08-30T23:26:56.515Z,97983.59
2022-08-30T23:29:44.369Z,97975.47
2022-08-30T23:32:32.139Z,97980.94
2022-08-30T23:35:17.915Z,97985.22
2022-08-30T23:38:05.549Z,97982.91
2022-08-30T23:40:52.831Z,97982.91
2022-08-30T23:43:38.474Z,97984.94
2022-08-30T23:46:27.415Z,97976.72
2022-08-30T23:49:12.283Z,97983.78
2022-08-30T23:51:59.772Z,97980.28
2022-08-30T23:54:44.650Z,97978.38
2022-08-30T23:57:35.419Z,97971.31
